createdAt,value
2022-09-23T00:01:33.879Z,87.80
2022-09-23T00:04:00.857Z,87.60
2022-09-23T00:06:30.533Z,87.50
2022-09-23T00:08:57.249Z,87.20
2022-09-23T00:11:27.888Z,87.40
2022-09-23T00:13:57.549Z,87.60
2022-09-23T00:16:28.473Z,87.60
2022-09-23T00:18:55.606Z,87.70
2022-09-23T00:21:23.098Z,87.90
2022-09-23T00:23:49.843Z,88.40
2022-09-23T00:26:18.997Z,88.30
2022-09-23T00:28:46.234Z,88.60
2022-09-23T00:31:19.247Z,88.30
2022-09-23T00:33:46.323Z,88.60
2022-09-23T00:36:18.236Z,88.60
2022-09-23T00:38:45.302Z,89.10
2022-09-23T00:41:15.203Z,88.80
2022-09-23T00:43:54.675Z,89.10
2022-09-23T00:46:37.793Z,88.90
2022-09-23T00:49:12.127Z,88.50
2022-09-23T00:51:44.222Z,88.70
2022-09-23T00:54:11.873Z,88.80
2022-09-23T00:56:39.606Z,89.10
2022-09-23T00:59:09.596Z,88.70
2022-09-23T01:01:38.350Z,88.70
2022-09-23T01:04:07.861Z,88.60
2022-09-23T01:06:34.609Z,88.80
2022-09-23T01:09:01.438Z,89.00
2022-09-23T01:11:57.161Z,89.00
2022-09-23T01:14:50.277Z,89.30
2022-09-23T01:17:45.446Z,89.20
2022-09-23T01:20:24.723Z,89.00
2022-09-23T01:22:51.372Z,89.00
2022-09-23T01:25:42.775Z,89.30
2022-09-23T01:28:25.318Z,88.80
2022-09-23T01:31:04.715Z,88.90
2022-09-23T01:33:54.519Z,89.20
2022-09-23T01:37:01.487Z,89.30
2022-09-23T01:39:55.414Z,89.10
2022-09-23T01:42:46.255Z,88.90
2022-09-23T01:45:21.786Z,88.60
2022-09-23T01:47:56.238Z,88.40
2022-09-23T01:50:47.912Z,89.20
2022-09-23T01:53:39.106Z,89.00
2022-09-23T01:56:13.148Z,89.10
2022-09-23T01:58:43.039Z,88.90
2022-09-23T02:01:15.176Z,88.70
2022-09-23T02:03:50.209Z,89.00
2022-09-23T02:06:23.271Z,89.20
2022-09-23T02:09:09.121Z,89.30
2022-09-23T02:11:37.359Z,89.00
2022-09-23T02:14:11.719Z,89.60
2022-09-23T02:16:42.299Z,89.00
2022-09-23T02:19:17.974Z,89.00
2022-09-23T02:21:53.091Z,89.00
2022-09-23T02:24:29.904Z,89.10
2022-09-23T02:27:07.420Z,88.70
2022-09-23T02:29:52.669Z,88.70
2022-09-23T02:32:25.232Z,89.00
2022-09-23T02:35:01.568Z,88.80
2022-09-23T02:37:44.238Z,89.10
2022-09-23T02:40:28.354Z,88.70
2022-09-23T02:43:21.917Z,88.60
2022-09-23T02:45:49.705Z,88.60
2022-09-23T02:48:22.146Z,88.80
2022-09-23T02:50:49.280Z,89.20
2022-09-23T02:53:16.635Z,89.40
2022-09-23T02:55:43.567Z,89.40
2022-09-23T02:58:14.997Z,88.90
2022-09-23T03:01:25.597Z,90.00
2022-09-23T03:04:06.729Z,89.20
2022-09-23T03:06:45.144Z,89.30
2022-09-23T03:09:33.908Z,89.70
2022-09-23T03:12:17.395Z,89.20
2022-09-23T03:15:05.628Z,88.50
2022-09-23T03:17:39.691Z,89.50
2022-09-23T03:20:34.215Z,89.10
2022-09-23T03:23:06.590Z,89.20
2022-09-23T03:25:38.635Z,89.50
2022-09-23T03:28:08.390Z,89.00
2022-09-23T03:30:36.649Z,89.00
2022-09-23T03:33:07.470Z,88.90
2022-09-23T03:35:59.165Z,88.90
2022-09-23T03:38:30.325Z,89.20
2022-09-23T03:40:59.488Z,89.50
2022-09-23T03:43:26.458Z,89.20
2022-09-23T03:45:57.365Z,89.50
2022-09-23T03:48:25.288Z,89.10
2022-09-23T03:50:52.426Z,89.30
2022-09-23T03:53:21.021Z,89.70
2022-09-23T03:55:48.252Z,89.30
2022-09-23T03:58:15.901Z,89.70
2022-09-23T04:00:43.588Z,89.00
2022-09-23T04:03:11.883Z,89.40
2022-09-23T04:05:38.787Z,89.50
2022-09-23T04:08:05.647Z,89.50
2022-09-23T04:10:32.499Z,89.10
2022-09-23T04:12:59.330Z,89.50
2022-09-23T04:15:26.120Z,89.60
2022-09-23T04:17:52.832Z,89.60
2022-09-23T04:20:20.635Z,89.40
2022-09-23T04:22:47.360Z,89.40
2022-09-23T04:25:14.585Z,89.10
2022-09-23T04:27:41.365Z,89.50
2022-09-23T04:30:08.721Z,89.70
2022-09-23T04:32:35.459Z,89.80
2022-09-23T04:35:02.210Z,89.50
2022-09-23T04:37:29.443Z,89.40
2022-09-23T04:39:56.536Z,89.50
2022-09-23T04:42:23.300Z,89.30
2022-09-23T04:44:50.088Z,89.60
2022-09-23T04:47:19.232Z,89.60
2022-09-23T04:49:45.949Z,89.80
2022-09-23T04:52:12.690Z,89.60
2022-09-23T04:54:41.709Z,89.60
2022-09-23T04:57:11.105Z,89.80
2022-09-23T04:59:37.832Z,89.70
2022-09-23T05:02:04.711Z,89.80
2022-09-23T05:04:32.438Z,89.90
2022-09-23T05:07:03.255Z,90.00
2022-09-23T05:09:31.085Z,90.00
2022-09-23T05:11:58.237Z,89.90
2022-09-23T05:14:25.013Z,89.70
2022-09-23T05:16:51.734Z,89.90
2022-09-23T05:19:18.436Z,90.10
2022-09-23T05:21:45.171Z,90.00
2022-09-23T05:24:12.496Z,89.90
2022-09-23T05:26:40.049Z,89.90
2022-09-23T05:29:06.900Z,90.10
2022-09-23T05:31:33.811Z,89.80
2022-09-23T05:34:05.416Z,90.00
2022-09-23T05:36:38.323Z,90.00
2022-09-23T05:39:07.329Z,90.00
2022-09-23T05:41:34.388Z,90.00
2022-09-23T05:44:02.120Z,89.90
2022-09-23T05:46:30.871Z,89.90
2022-09-23T05:49:02.501Z,90.00
2022-09-23T05:51:31.837Z,90.00
2022-09-23T05:54:05.778Z,89.80
2022-09-23T05:56:34.249Z,90.00
2022-09-23T05:59:02.022Z,90.00
2022-09-23T06:01:35.256Z,90.00
2022-09-23T06:04:04.318Z,89.80
2022-09-23T06:06:33.642Z,89.90
2022-09-23T06:09:00.929Z,90.30
2022-09-23T06:11:30.554Z,90.10
2022-09-23T06:14:02.335Z,90.10
2022-09-23T06:16:37.417Z,90.10
2022-09-23T06:19:07.300Z,90.10
2022-09-23T06:21:37.257Z,90.00
2022-09-23T06:24:05.212Z,90.20
2022-09-23T06:26:34.916Z,90.40
2022-09-23T06:29:03.326Z,90.30
2022-09-23T06:31:30.606Z,90.30
2022-09-23T06:34:12.528Z,90.20
2022-09-23T06:36:44.332Z,90.30
2022-09-23T06:39:13.120Z,90.30
2022-09-23T06:41:39.864Z,90.40
2022-09-23T06:44:07.295Z,90.40
2022-09-23T06:46:34.135Z,90.40
2022-09-23T06:49:02.829Z,90.20
2022-09-23T06:51:30.113Z,90.40
2022-09-23T06:53:56.827Z,90.40
2022-09-23T06:56:24.241Z,90.50
2022-09-23T06:58:52.956Z,90.90
2022-09-23T07:01:20.267Z,90.70
2022-09-23T07:03:48.423Z,90.80
2022-09-23T07:06:15.662Z,89.20
2022-09-23T07:08:47.117Z,87.50
2022-09-23T07:11:15.557Z,87.50
2022-09-23T07:13:44.917Z,87.50
2022-09-23T07:16:12.046Z,87.80
2022-09-23T07:18:39.507Z,88.10
2022-09-23T07:21:15.606Z,88.30
2022-09-23T07:23:47.273Z,88.30
2022-09-23T07:26:15.563Z,88.90
2022-09-23T07:28:42.176Z,88.90
2022-09-23T07:31:15.110Z,89.30
2022-09-23T07:33:45.879Z,89.40
2022-09-23T07:36:18.949Z,89.10
2022-09-23T07:38:47.359Z,88.80
2022-09-23T07:41:16.930Z,88.10
2022-09-23T07:43:44.327Z,88.40
2022-09-23T07:46:16.849Z,88.70
2022-09-23T07:48:44.499Z,89.00
2022-09-23T07:51:16.462Z,88.10
2022-09-23T07:53:48.821Z,88.70
2022-09-23T07:56:15.732Z,88.90
2022-09-23T07:58:42.601Z,88.90
2022-09-23T08:01:10.681Z,89.50
2022-09-23T08:03:38.369Z,89.00
2022-09-23T08:06:09.870Z,88.90
2022-09-23T08:08:40.416Z,88.40
2022-09-23T08:11:10.259Z,88.40
2022-09-23T08:13:37.891Z,88.50
2022-09-23T08:16:05.295Z,88.80
2022-09-23T08:18:32.500Z,89.00
2022-09-23T08:20:59.433Z,88.90
2022-09-23T08:23:26.285Z,88.90
2022-09-23T08:26:01.626Z,88.60
2022-09-23T08:28:28.851Z,87.40
2022-09-23T08:30:58.290Z,86.80
2022-09-23T08:33:25.485Z,87.20
2022-09-23T08:35:52.924Z,86.90
2022-09-23T08:38:20.444Z,87.20
2022-09-23T08:40:50.084Z,87.20
2022-09-23T08:43:30.097Z,87.60
2022-09-23T08:46:05.278Z,88.60
2022-09-23T08:48:38.497Z,87.90
2022-09-23T08:51:10.988Z,87.50
2022-09-23T08:53:38.159Z,88.10
2022-09-23T08:56:20.043Z,87.30
2022-09-23T08:59:05.111Z,87.60
2022-09-23T09:01:38.398Z,87.90
2022-09-23T09:04:18.645Z,87.70
2022-09-23T09:10:15.973Z,89.50
2022-09-23T09:12:50.407Z,90.20
2022-09-23T09:15:24.841Z,90.10
2022-09-23T09:17:55.226Z,89.80
2022-09-23T09:20:40.065Z,89.80
2022-09-23T09:23:22.587Z,90.40
2022-09-23T09:26:01.450Z,90.40
2022-09-23T09:29:11.464Z,90.00
2022-09-23T09:31:49.439Z,90.10
2022-09-23T09:34:29.237Z,90.20
2022-09-23T09:37:15.702Z,90.00
2022-09-23T09:39:42.495Z,90.00
2022-09-23T09:42:41.751Z,90.10
2022-09-23T09:45:19.788Z,90.20
2022-09-23T09:47:47.353Z,90.10
2022-09-23T09:50:22.128Z,90.20
2022-09-23T09:52:49.317Z,90.10
2022-09-23T09:55:25.479Z,89.40
2022-09-23T09:58:04.242Z,89.90
2022-09-23T10:00:40.192Z,90.10
2022-09-23T10:03:13.321Z,90.00
2022-09-23T10:05:45.931Z,90.10
2022-09-23T10:08:36.231Z,90.40
2022-09-23T10:11:11.140Z,90.10
2022-09-23T10:13:37.986Z,90.30
2022-09-23T10:16:05.030Z,89.60
2022-09-23T10:18:37.422Z,90.20
2022-09-23T10:21:08.406Z,87.50
2022-09-23T10:23:40.611Z,88.50
2022-09-23T10:26:08.426Z,88.50
2022-09-23T10:28:37.919Z,85.60
2022-09-23T10:31:06.203Z,87.60
2022-09-23T10:33:32.927Z,88.10
2022-09-23T10:35:59.713Z,86.70
2022-09-23T10:38:26.958Z,85.00
2022-09-23T10:41:15.241Z,83.90
2022-09-23T10:44:04.202Z,84.10
2022-09-23T10:46:42.754Z,83.30
2022-09-23T10:49:52.515Z,82.70
2022-09-23T10:52:19.182Z,83.70
2022-09-23T10:55:03.962Z,83.60
2022-09-23T10:57:45.513Z,83.40
2022-09-23T11:00:23.320Z,78.30
2022-09-23T11:03:13.685Z,78.90
2022-09-23T11:05:55.756Z,79.10
2022-09-23T11:08:50.695Z,79.90
2022-09-23T11:11:29.058Z,80.20
2022-09-23T11:14:30.156Z,81.20
2022-09-23T11:17:37.832Z,82.20
2022-09-23T11:20:23.188Z,80.60
2022-09-23T11:22:50.628Z,80.50
2022-09-23T11:25:17.305Z,81.40
2022-09-23T11:28:00.801Z,83.40
2022-09-23T11:30:41.232Z,81.80
2022-09-23T11:33:31.149Z,82.50
2022-09-23T11:36:19.883Z,82.40
2022-09-23T11:38:51.391Z,82.20
2022-09-23T11:41:38.005Z,83.20
2022-09-23T11:44:33.645Z,82.30
2022-09-23T11:47:09.034Z,82.40
2022-09-23T11:49:41.242Z,83.30
2022-09-23T11:52:19.670Z,83.60
2022-09-23T11:54:53.374Z,82.90
2022-09-23T11:57:51.421Z,83.20
2022-09-23T12:00:21.280Z,83.80
2022-09-23T12:03:05.717Z,84.10
2022-09-23T12:05:59.462Z,84.80
2022-09-23T12:08:32.790Z,84.90
2022-09-23T12:11:06.817Z,85.50
2022-09-23T12:13:42.746Z,85.60
2022-09-23T12:16:28.307Z,85.80
2022-09-23T12:19:33.194Z,86.20
2022-09-23T12:22:05.694Z,87.20
2022-09-23T12:24:59.557Z,88.70
2022-09-23T12:27:55.154Z,90.00
2022-09-23T12:30:26.683Z,90.50
2022-09-23T12:33:06.902Z,91.10
2022-09-23T12:35:41.881Z,91.40
2022-09-23T12:38:25.245Z,92.00
2022-09-23T12:40:55.054Z,92.40
2022-09-23T12:43:34.477Z,92.70
2022-09-23T12:46:19.676Z,93.30
2022-09-23T12:48:57.281Z,93.70
2022-09-23T12:51:25.656Z,94.30
2022-09-23T12:53:58.252Z,94.80
2022-09-23T12:56:38.710Z,95.00
2022-09-23T12:59:27.218Z,95.30
2022-09-23T13:01:55.049Z,95.40
2022-09-23T13:05:03.066Z,95.80
2022-09-23T13:07:34.115Z,96.00
2022-09-23T13:10:32.757Z,96.20
2022-09-23T13:13:02.238Z,96.50
2022-09-23T13:15:36.750Z,96.70
2022-09-23T13:18:18.869Z,97.00
2022-09-23T13:20:46.975Z,97.20
2022-09-23T13:23:28.320Z,97.50
2022-09-23T13:25:58.906Z,97.90
2022-09-23T13:28:31.976Z,98.10
2022-09-23T13:31:02.371Z,98.30
2022-09-23T13:33:33.251Z,98.60
2022-09-23T13:36:04.335Z,98.70
2022-09-23T13:38:32.660Z,99.30
2022-09-23T13:41:29.980Z,99.30
2022-09-23T13:43:58.718Z,99.50
2022-09-23T13:46:27.190Z,99.70
2022-09-23T13:48:55.483Z,99.90
2022-09-23T13:51:30.116Z,99.90
2022-09-23T13:53:59.382Z,99.90
2022-09-23T13:56:28.819Z,99.90
2022-09-23T13:59:29.937Z,99.90
2022-09-23T14:02:04.088Z,99.90
2022-09-23T14:04:33.054Z,99.90
2022-09-23T14:06:59.889Z,99.90
2022-09-23T14:09:28.908Z,99.90
2022-09-23T14:11:58.539Z,99.90
2022-09-23T14:14:29.295Z,99.90
2022-09-23T14:16:56.837Z,99.90
2022-09-23T14:19:25.649Z,99.90
2022-09-23T14:21:57.092Z,99.90
2022-09-23T14:24:33.369Z,99.90
2022-09-23T14:27:17.595Z,99.90
2022-09-23T14:29:46.560Z,99.90
2022-09-23T14:32:15.435Z,99.90
2022-09-23T14:34:56.024Z,99.90
2022-09-23T14:37:46.793Z,99.90
2022-09-23T14:40:37.113Z,99.90
2022-09-23T14:43:13.019Z,99.90
2022-09-23T14:45:41.281Z,99.90
2022-09-23T14:48:22.240Z,99.90
2022-09-23T14:50:56.317Z,99.90
2022-09-23T14:53:23.087Z,99.90
2022-09-23T14:56:17.578Z,99.90
2022-09-23T14:58:57.768Z,96.40
2022-09-23T15:01:26.069Z,97.00
2022-09-23T15:03:53.483Z,95.20
2022-09-23T15:06:22.980Z,98.20
2022-09-23T15:08:51.074Z,99.90
2022-09-23T15:11:18.174Z,99.90
2022-09-23T15:13:49.423Z,99.90
2022-09-23T15:16:24.954Z,99.90
2022-09-23T15:18:55.738Z,99.90
2022-09-23T15:21:23.290Z,99.90
2022-09-23T15:23:52.921Z,99.90
2022-09-23T15:26:24.736Z,99.90
2022-09-23T15:28:54.115Z,99.90
2022-09-23T15:31:23.267Z,99.90
2022-09-23T15:33:51.093Z,99.90
2022-09-23T15:36:20.621Z,99.90
2022-09-23T15:38:47.996Z,99.90
2022-09-23T15:41:16.129Z,99.90
2022-09-23T15:43:43.724Z,99.90
2022-09-23T15:46:22.469Z,99.90
2022-09-23T15:49:00.798Z,99.90
2022-09-23T15:51:28.497Z,99.90
2022-09-23T15:53:56.451Z,99.90
2022-09-23T15:56:24.220Z,99.90
2022-09-23T15:58:51.277Z,99.90
2022-09-23T16:01:25.320Z,99.90
2022-09-23T16:03:52.094Z,99.90
2022-09-23T16:06:20.174Z,99.90
2022-09-23T16:08:47.258Z,99.90
2022-09-23T16:11:19.557Z,99.90
2022-09-23T16:13:46.712Z,99.90
2022-09-23T16:16:14.095Z,99.90
2022-09-23T16:18:43.779Z,99.90
2022-09-23T16:21:13.411Z,99.90
2022-09-23T16:23:47.562Z,99.90
2022-09-23T16:26:21.293Z,99.90
2022-09-23T16:28:49.898Z,99.90
2022-09-23T16:31:16.796Z,99.90
2022-09-23T16:33:45.529Z,99.90
2022-09-23T16:36:31.092Z,99.90
2022-09-23T16:39:00.107Z,99.90
2022-09-23T16:41:29.297Z,99.90
2022-09-23T16:43:56.374Z,99.90
2022-09-23T16:46:27.199Z,99.90
2022-09-23T16:48:55.586Z,99.90
2022-09-23T16:51:26.188Z,99.90
2022-09-23T16:53:54.808Z,99.90
2022-09-23T16:56:28.247Z,99.90
2022-09-23T16:58:56.731Z,99.90
2022-09-23T17:01:43.989Z,99.90
2022-09-23T17:04:12.432Z,99.90
2022-09-23T17:06:43.896Z,99.90
2022-09-23T17:09:11.359Z,99.90
2022-09-23T17:11:41.318Z,99.90
2022-09-23T17:14:08.560Z,99.90
2022-09-23T17:16:36.094Z,99.90
2022-09-23T17:19:08.219Z,99.90
2022-09-23T17:21:35.747Z,99.90
2022-09-23T17:24:03.039Z,99.80
2022-09-23T17:26:30.398Z,99.90
2022-09-23T17:28:58.798Z,99.90
2022-09-23T17:31:26.434Z,99.70
2022-09-23T17:33:54.032Z,99.70
2022-09-23T17:36:22.050Z,99.70
2022-09-23T17:38:49.733Z,99.70
2022-09-23T17:41:18.038Z,99.50
2022-09-23T17:43:46.690Z,99.60
2022-09-23T17:46:18.144Z,99.40
2022-09-23T17:48:45.839Z,99.20
2022-09-23T17:51:17.407Z,99.20
2022-09-23T17:53:46.534Z,99.10
2022-09-23T17:56:29.735Z,98.90
2022-09-23T17:59:00.961Z,99.00
2022-09-23T18:01:28.221Z,98.90
2022-09-23T18:03:56.705Z,98.80
2022-09-23T18:06:25.616Z,99.00
2022-09-23T18:08:56.106Z,98.90
2022-09-23T18:11:28.332Z,98.80
2022-09-23T18:13:58.079Z,98.50
2022-09-23T18:16:27.412Z,98.50
2022-09-23T18:18:59.102Z,98.50
2022-09-23T18:21:31.582Z,98.50
2022-09-23T18:24:21.362Z,98.60
2022-09-23T18:26:47.788Z,98.50
2022-09-23T18:29:15.907Z,98.40
2022-09-23T18:31:44.170Z,98.30
2022-09-23T18:34:12.912Z,98.30
2022-09-23T18:36:40.255Z,98.20
2022-09-23T18:39:07.491Z,98.10
2022-09-23T18:41:35.594Z,98.10
2022-09-23T18:44:02.861Z,98.10
2022-09-23T18:46:30.700Z,98.10
2022-09-23T18:49:17.332Z,98.10
2022-09-23T18:51:48.029Z,98.10
2022-09-23T18:54:15.601Z,98.00
2022-09-23T18:56:44.538Z,98.00
2022-09-23T18:59:17.604Z,98.10
2022-09-23T19:01:46.233Z,97.90
2022-09-23T19:04:15.569Z,97.90
2022-09-23T19:06:42.732Z,97.90
2022-09-23T19:09:10.886Z,97.80
2022-09-23T19:11:38.035Z,97.70
2022-09-23T19:14:09.921Z,97.60
2022-09-23T19:16:39.020Z,97.50
2022-09-23T19:19:08.423Z,97.60
2022-09-23T19:21:35.387Z,97.60
2022-09-23T19:24:04.827Z,97.50
2022-09-23T19:26:42.106Z,97.30
2022-09-23T19:29:14.062Z,97.40
2022-09-23T19:31:42.104Z,97.40
2022-09-23T19:34:13.858Z,97.30
2022-09-23T19:36:43.067Z,97.20
2022-09-23T19:39:24.232Z,97.20
2022-09-23T19:41:52.564Z,97.40
2022-09-23T19:44:20.148Z,97.10
2022-09-23T19:46:53.641Z,97.20
2022-09-23T19:49:23.911Z,97.10
2022-09-23T19:51:55.343Z,97.10
2022-09-23T19:54:22.913Z,97.00
2022-09-23T19:56:50.141Z,97.10
2022-09-23T19:59:19.129Z,97.20
2022-09-23T20:01:47.748Z,97.30
2022-09-23T20:04:15.787Z,96.90
2022-09-23T20:06:42.870Z,96.90
2022-09-23T20:09:09.958Z,96.80
2022-09-23T20:11:36.868Z,96.70
2022-09-23T20:14:05.795Z,96.60
2022-09-23T20:16:35.364Z,96.60
2022-09-23T20:19:04.076Z,96.80
2022-09-23T20:21:31.249Z,96.70
2022-09-23T20:23:58.459Z,96.70
2022-09-23T20:26:43.675Z,96.60
2022-09-23T20:29:11.253Z,96.50
2022-09-23T20:31:40.271Z,96.50
2022-09-23T20:34:08.217Z,96.40
2022-09-23T20:36:35.979Z,96.30
2022-09-23T20:39:05.893Z,96.40
2022-09-23T20:41:37.923Z,96.50
2022-09-23T20:44:07.568Z,96.30
2022-09-23T20:46:35.077Z,96.30
2022-09-23T20:49:02.650Z,96.40
2022-09-23T20:51:29.725Z,96.40
2022-09-23T20:53:56.418Z,96.20
2022-09-23T20:56:23.873Z,96.00
2022-09-23T20:58:52.444Z,96.00
2022-09-23T21:01:20.023Z,95.90
2022-09-23T21:03:50.032Z,96.00
2022-09-23T21:06:18.992Z,96.00
2022-09-23T21:08:46.463Z,96.10
2022-09-23T21:11:18.749Z,95.90
2022-09-23T21:13:50.790Z,95.80
2022-09-23T21:16:19.973Z,95.80
2022-09-23T21:18:49.122Z,95.90
2022-09-23T21:21:18.329Z,96.00
2022-09-23T21:23:47.701Z,95.80
2022-09-23T21:26:23.135Z,95.70
2022-09-23T21:28:52.420Z,95.70
2022-09-23T21:31:27.427Z,95.80
2022-09-23T21:33:56.213Z,95.60
2022-09-23T21:36:24.581Z,95.50
2022-09-23T21:38:52.237Z,95.50
2022-09-23T21:41:19.505Z,95.40
2022-09-23T21:43:48.174Z,95.50
2022-09-23T21:46:20.154Z,95.60
2022-09-23T21:48:50.200Z,95.60
2022-09-23T21:51:19.220Z,95.30
2022-09-23T21:53:46.493Z,95.20
2022-09-23T21:56:20.428Z,95.30
2022-09-23T21:58:47.830Z,95.20
2022-09-23T22:01:20.191Z,95.10
2022-09-23T22:03:55.410Z,94.90
2022-09-23T22:06:30.469Z,95.10
2022-09-23T22:09:00.205Z,94.90
2022-09-23T22:11:48.235Z,94.80
2022-09-23T22:14:18.967Z,94.80
2022-09-23T22:16:46.004Z,94.70
2022-09-23T22:19:13.802Z,94.80
2022-09-23T22:21:42.240Z,94.70
2022-09-23T22:24:10.509Z,94.70
2022-09-23T22:26:42.265Z,94.60
2022-09-23T22:29:32.515Z,94.60
2022-09-23T22:32:19.309Z,94.50
2022-09-23T22:34:50.160Z,94.60
2022-09-23T22:37:20.862Z,94.60
2022-09-23T22:39:47.630Z,94.60
2022-09-23T22:42:14.460Z,94.60
2022-09-23T22:44:41.342Z,94.40
2022-09-23T22:47:09.273Z,94.40
2022-09-23T22:49:36.178Z,94.60
2022-09-23T22:52:06.972Z,94.60
2022-09-23T22:54:35.287Z,94.50
2022-09-23T22:57:05.117Z,94.40
2022-09-23T22:59:31.926Z,94.20
2022-09-23T23:02:02.863Z,94.10
2022-09-23T23:04:30.534Z,94.30
2022-09-23T23:06:58.819Z,94.30
2022-09-23T23:09:25.686Z,94.20
2022-09-23T23:11:54.902Z,94.20
2022-09-23T23:14:21.701Z,94.10
2022-09-23T23:16:48.523Z,94.10
2022-09-23T23:19:17.529Z,94.10
2022-09-23T23:21:45.432Z,94.10
2022-09-23T23:24:23.523Z,94.00
2022-09-23T23:26:51.339Z,94.00
2022-09-23T23:29:21.281Z,94.00
2022-09-23T23:31:48.432Z,94.10
2022-09-23T23:34:21.482Z,93.90
2022-09-23T23:36:54.407Z,94.00
2022-09-23T23:39:26.262Z,94.00
2022-09-23T23:41:57.286Z,93.90
2022-09-23T23:44:25.554Z,93.80
2022-09-23T23:46:53.595Z,94.00
2022-09-23T23:49:20.401Z,93.70
2022-09-23T23:51:47.914Z,93.60
2022-09-23T23:54:15.396Z,93.50
2022-09-23T23:56:42.542Z,93.50
2022-09-23T23:59:09.373Z,93.70
